createdAt,value
2023-05-12T00:01:42.270Z,31.70
2023-05-12T00:04:43.327Z,31.54
2023-05-12T00:07:44.264Z,31.55
2023-05-12T00:10:45.328Z,31.55
2023-05-12T00:13:46.301Z,31.64
2023-05-12T00:16:47.687Z,31.54
2023-05-12T00:19:50.226Z,31.46
2023-05-12T00:22:51.319Z,31.57
2023-05-12T00:25:52.247Z,31.52
2023-05-12T00:28:55.539Z,31.52
2023-05-12T00:31:56.423Z,31.62
2023-05-12T00:34:59.303Z,31.57
2023-05-12T00:38:00.250Z,31.40
2023-05-12T00:41:01.297Z,31.42
2023-05-12T00:44:02.252Z,31.48
2023-05-12T00:47:03.277Z,31.47
2023-05-12T00:50:04.287Z,31.51
2023-05-12T00:53:05.296Z,31.41
2023-05-12T00:56:06.269Z,31.49
2023-05-12T00:59:07.293Z,31.59
2023-05-12T01:02:08.324Z,31.51
2023-05-12T01:05:09.334Z,31.44
2023-05-12T01:08:11.273Z,31.54
2023-05-12T01:11:13.305Z,31.60
2023-05-12T01:14:14.273Z,31.54
2023-05-12T01:17:16.408Z,31.58
2023-05-12T01:20:17.377Z,31.53
2023-05-12T01:23:29.279Z,31.65
2023-05-12T01:26:30.265Z,31.52
2023-05-12T01:29:31.657Z,31.42
2023-05-12T01:32:33.260Z,31.62
2023-05-12T01:35:34.352Z,31.64
2023-05-12T01:38:35.246Z,31.43
2023-05-12T01:41:36.282Z,31.42
2023-05-12T01:44:37.228Z,31.29
2023-05-12T01:47:38.444Z,31.52
2023-05-12T01:50:39.240Z,31.45
2023-05-12T01:53:45.355Z,31.26
2023-05-12T01:56:46.238Z,31.42
2023-05-12T01:59:47.284Z,31.34
2023-05-12T02:02:52.311Z,31.36
2023-05-12T02:05:53.307Z,31.29
2023-05-12T02:08:54.242Z,31.24
2023-05-12T02:11:55.278Z,31.33
2023-05-12T02:14:49.481Z,31.39
2023-05-12T02:17:43.421Z,31.20
2023-05-12T02:20:45.253Z,31.27
2023-05-12T02:23:46.273Z,31.42
2023-05-12T02:26:47.254Z,31.25
2023-05-12T02:29:48.289Z,31.31
2023-05-12T02:32:49.307Z,31.30
2023-05-12T02:35:50.294Z,31.40
2023-05-12T02:38:51.242Z,31.25
2023-05-12T02:41:52.278Z,31.44
2023-05-12T02:44:54.240Z,31.29
2023-05-12T02:47:55.337Z,31.30
2023-05-12T02:50:56.212Z,31.40
2023-05-12T02:53:57.275Z,31.30
2023-05-12T02:56:58.252Z,31.32
2023-05-12T02:59:59.331Z,31.30
2023-05-12T03:03:02.565Z,31.23
2023-05-12T03:06:03.316Z,31.38
2023-05-12T03:09:04.226Z,31.28
2023-05-12T03:12:05.304Z,31.34
2023-05-12T03:15:06.223Z,31.32
2023-05-12T03:18:07.431Z,31.19
2023-05-12T03:21:08.228Z,31.35
2023-05-12T03:24:09.289Z,31.38
2023-05-12T03:27:10.240Z,31.50
2023-05-12T03:30:12.282Z,31.46
2023-05-12T03:33:13.241Z,31.32
2023-05-12T03:36:14.267Z,31.15
2023-05-12T03:39:17.236Z,31.51
2023-05-12T03:42:19.496Z,31.51
2023-05-12T03:45:20.283Z,31.30
2023-05-12T03:48:21.294Z,31.43
2023-05-12T03:51:22.263Z,31.45
2023-05-12T03:54:23.270Z,31.48
2023-05-12T03:57:26.255Z,31.26
2023-05-12T04:00:27.274Z,31.15
2023-05-12T04:03:28.304Z,31.42
2023-05-12T04:06:29.264Z,31.29
2023-05-12T04:09:33.626Z,31.55
2023-05-12T04:12:35.300Z,31.36
2023-05-12T04:15:36.236Z,31.47
2023-05-12T04:18:37.385Z,31.26
2023-05-12T04:21:38.215Z,31.33
2023-05-12T04:24:39.312Z,31.30
2023-05-12T04:27:40.249Z,31.52
2023-05-12T04:30:41.266Z,31.52
2023-05-12T04:33:42.199Z,31.53
2023-05-12T04:36:43.267Z,31.33
2023-05-12T04:39:44.223Z,31.56
2023-05-12T04:42:45.316Z,31.50
2023-05-12T04:45:46.312Z,31.41
2023-05-12T04:48:48.280Z,31.56
2023-05-12T04:51:51.227Z,31.40
2023-05-12T04:54:52.525Z,31.65
2023-05-12T04:57:53.220Z,31.42
2023-05-12T05:00:54.309Z,31.51
2023-05-12T05:03:56.249Z,31.60
2023-05-12T05:06:57.325Z,31.41
2023-05-12T05:09:58.236Z,31.70
2023-05-12T05:12:59.268Z,31.28
2023-05-12T05:16:05.356Z,31.49
2023-05-12T05:19:19.941Z,31.56
2023-05-12T05:22:26.259Z,31.62
2023-05-12T05:25:27.251Z,31.53
2023-05-12T05:28:28.249Z,31.52
2023-05-12T05:31:29.354Z,31.67
2023-05-12T05:34:30.252Z,31.60
2023-05-12T05:37:31.276Z,31.63
2023-05-12T05:40:44.985Z,31.64
2023-05-12T05:43:53.330Z,31.41
2023-05-12T05:46:54.255Z,31.57
2023-05-12T05:49:55.334Z,31.54
2023-05-12T05:52:58.242Z,31.62
2023-05-12T05:55:59.303Z,31.67
2023-05-12T05:59:00.202Z,32.08
2023-05-12T06:02:01.254Z,32.02
2023-05-12T06:05:02.302Z,31.61
2023-05-12T06:08:03.275Z,31.57
2023-05-12T06:11:04.252Z,31.38
2023-05-12T06:14:05.271Z,31.39
2023-05-12T06:16:59.445Z,31.83
2023-05-12T06:19:54.396Z,31.57
2023-05-12T06:22:55.219Z,31.69
2023-05-12T06:25:57.274Z,31.64
2023-05-12T06:28:58.203Z,31.52
2023-05-12T06:31:59.290Z,31.78
2023-05-12T06:35:00.251Z,31.64
2023-05-12T06:38:01.247Z,31.68
2023-05-12T06:41:02.246Z,31.46
2023-05-12T06:44:04.381Z,31.60
2023-05-12T06:47:05.208Z,31.88
2023-05-12T06:50:06.266Z,31.99
2023-05-12T06:53:08.457Z,31.58
2023-05-12T06:56:09.341Z,31.84
2023-05-12T06:59:11.292Z,32.06
2023-05-12T07:02:12.279Z,31.85
2023-05-12T07:05:31.404Z,31.75
2023-05-12T07:08:19.864Z,32.17
2023-05-12T07:11:26.267Z,32.25
2023-05-12T07:14:27.393Z,32.18
2023-05-12T07:17:28.636Z,32.02
2023-05-12T07:20:29.412Z,31.94
2023-05-12T07:23:30.183Z,32.42
2023-05-12T07:26:34.171Z,32.58
2023-05-12T07:29:35.202Z,32.66
2023-05-12T07:32:36.324Z,32.38
2023-05-12T07:35:37.233Z,32.64
2023-05-12T07:38:39.258Z,32.53
2023-05-12T07:41:40.215Z,32.36
2023-05-12T07:44:41.229Z,32.64
2023-05-12T07:47:42.238Z,32.63
2023-05-12T07:50:43.259Z,32.65
2023-05-12T07:53:44.494Z,32.89
2023-05-12T07:56:45.257Z,32.69
2023-05-12T07:59:46.188Z,32.76
2023-05-12T08:02:47.520Z,32.77
2023-05-12T08:05:48.257Z,32.71
2023-05-12T08:08:49.226Z,32.55
2023-05-12T08:11:51.539Z,32.70
2023-05-12T08:14:52.244Z,32.62
2023-05-12T08:17:53.262Z,32.65
2023-05-12T08:20:54.292Z,32.76
2023-05-12T08:23:55.215Z,32.49
2023-05-12T08:26:56.221Z,32.58
2023-05-12T08:29:57.230Z,32.36
2023-05-12T08:32:58.273Z,32.74
2023-05-12T08:35:59.204Z,32.80
2023-05-12T08:39:00.229Z,32.83
2023-05-12T08:42:17.306Z,32.59
2023-05-12T08:45:18.417Z,32.65
2023-05-12T08:48:20.196Z,32.53
2023-05-12T08:51:22.206Z,32.63
2023-05-12T08:54:23.175Z,32.50
2023-05-12T08:57:24.211Z,32.50
2023-05-12T09:00:25.234Z,32.59
2023-05-12T09:03:26.310Z,32.65
2023-05-12T09:06:27.188Z,32.40
2023-05-12T09:09:28.239Z,32.35
2023-05-12T09:12:31.188Z,32.48
2023-05-12T09:15:39.287Z,32.52
2023-05-12T09:18:33.348Z,32.41
2023-05-12T09:21:27.287Z,32.28
2023-05-12T09:24:29.436Z,32.29
2023-05-12T09:27:37.193Z,32.37
2023-05-12T09:30:45.176Z,32.33
2023-05-12T09:33:48.195Z,32.43
2023-05-12T09:36:49.199Z,32.35
2023-05-12T09:39:50.196Z,32.34
2023-05-12T09:43:12.457Z,32.53
2023-05-12T09:46:02.335Z,32.35
2023-05-12T09:49:03.196Z,32.34
2023-05-12T09:52:07.209Z,32.26
2023-05-12T09:55:08.214Z,32.39
2023-05-12T09:58:09.192Z,32.19
2023-05-12T10:01:21.636Z,32.05
2023-05-12T10:04:24.254Z,32.24
2023-05-12T10:07:26.190Z,32.38
2023-05-12T10:10:29.211Z,32.48
2023-05-12T10:13:30.166Z,32.29
2023-05-12T10:16:31.238Z,32.33
2023-05-12T10:19:25.296Z,32.33
2023-05-12T10:22:22.256Z,32.68
2023-05-12T10:25:25.167Z,32.59
2023-05-12T10:28:27.257Z,32.67
2023-05-12T10:31:31.307Z,32.66
2023-05-12T10:34:32.209Z,32.59
2023-05-12T10:37:33.186Z,32.53
2023-05-12T10:40:37.213Z,32.39
2023-05-12T10:43:41.248Z,32.43
2023-05-12T10:46:42.297Z,32.54
2023-05-12T10:49:53.157Z,32.49
2023-05-12T10:53:12.229Z,32.32
2023-05-12T10:56:16.341Z,32.48
2023-05-12T10:59:21.520Z,32.42
2023-05-12T11:02:40.174Z,32.63
2023-05-12T11:05:47.471Z,32.79
2023-05-12T11:08:50.696Z,32.47
2023-05-12T11:11:52.287Z,32.73
2023-05-12T11:14:54.509Z,32.47
2023-05-12T11:17:55.238Z,32.23
2023-05-12T11:20:49.289Z,32.75
2023-05-12T11:23:44.236Z,32.72
2023-05-12T11:26:45.167Z,32.78
2023-05-12T11:29:48.235Z,32.74
2023-05-12T11:32:52.203Z,32.72
2023-05-12T11:35:53.164Z,32.54
2023-05-12T11:38:54.166Z,32.40
2023-05-12T11:42:05.558Z,32.39
2023-05-12T11:45:10.171Z,32.75
2023-05-12T11:48:20.252Z,32.36
2023-05-12T11:51:21.180Z,32.48
2023-05-12T11:54:22.210Z,32.58
2023-05-12T11:57:23.150Z,32.70
2023-05-12T12:00:24.199Z,32.75
2023-05-12T12:03:26.252Z,32.72
2023-05-12T12:06:27.227Z,32.49
2023-05-12T12:09:28.179Z,32.56
2023-05-12T12:12:29.194Z,32.40
2023-05-12T12:15:30.177Z,32.57
2023-05-12T12:18:31.279Z,32.48
2023-05-12T12:21:25.334Z,32.39
2023-05-12T12:24:20.402Z,32.43
2023-05-12T12:27:21.158Z,32.50
2023-05-12T12:30:22.197Z,32.30
2023-05-12T12:33:23.171Z,32.31
2023-05-12T12:36:24.167Z,32.20
2023-05-12T12:39:25.259Z,32.50
2023-05-12T12:42:26.190Z,32.26
2023-05-12T12:45:27.360Z,32.42
2023-05-12T12:48:28.263Z,32.06
2023-05-12T12:51:42.084Z,32.33
2023-05-12T12:54:46.178Z,32.29
2023-05-12T12:57:47.179Z,32.42
2023-05-12T13:00:48.215Z,32.35
2023-05-12T13:03:49.167Z,32.22
2023-05-12T13:06:50.231Z,32.29
2023-05-12T13:09:51.177Z,32.03
2023-05-12T13:12:52.169Z,31.98
2023-05-12T13:15:53.210Z,32.36
2023-05-12T13:18:54.188Z,32.18
2023-05-12T13:21:55.196Z,32.04
2023-05-12T13:24:56.377Z,32.03
2023-05-12T13:27:57.152Z,32.04
2023-05-12T13:30:58.237Z,32.01
2023-05-12T13:33:59.162Z,32.38
2023-05-12T13:37:00.185Z,32.30
2023-05-12T13:40:01.191Z,32.16
2023-05-12T13:43:02.231Z,32.13
2023-05-12T13:46:03.211Z,32.15
2023-05-12T13:49:04.161Z,32.14
2023-05-12T13:52:05.144Z,32.15
2023-05-12T13:55:06.232Z,32.32
2023-05-12T13:58:07.146Z,32.26
2023-05-12T14:01:08.733Z,31.93
2023-05-12T14:04:09.411Z,32.23
2023-05-12T14:07:10.152Z,32.23
2023-05-12T14:10:11.150Z,32.30
2023-05-12T14:13:12.156Z,31.94
2023-05-12T14:16:18.230Z,32.01
2023-05-12T14:19:19.266Z,31.90
2023-05-12T14:22:26.569Z,31.98
2023-05-12T14:25:27.338Z,32.12
2023-05-12T14:28:29.210Z,32.14
2023-05-12T14:31:30.261Z,31.98
2023-05-12T14:34:31.131Z,32.23
2023-05-12T14:37:32.176Z,32.25
2023-05-12T14:40:34.161Z,31.95
2023-05-12T14:43:35.140Z,32.00
2023-05-12T14:46:36.137Z,31.89
2023-05-12T14:49:38.155Z,32.03
2023-05-12T14:52:45.130Z,31.99
2023-05-12T14:55:46.182Z,32.34
2023-05-12T14:58:47.117Z,32.42
2023-05-12T15:01:48.198Z,32.17
2023-05-12T15:04:49.162Z,32.30
2023-05-12T15:07:50.164Z,32.48
2023-05-12T15:10:51.149Z,32.37
2023-05-12T15:13:52.152Z,32.61
2023-05-12T15:16:53.203Z,32.33
2023-05-12T15:19:54.176Z,32.22
2023-05-12T15:22:55.114Z,32.16
2023-05-12T15:25:56.550Z,32.50
2023-05-12T15:28:59.125Z,32.39
2023-05-12T15:32:00.168Z,32.50
2023-05-12T15:35:01.148Z,32.58
2023-05-12T15:38:02.148Z,32.48
2023-05-12T15:41:03.185Z,32.34
2023-05-12T15:44:04.154Z,32.55
2023-05-12T15:47:05.153Z,32.42
2023-05-12T15:50:06.164Z,32.48
2023-05-12T15:53:07.214Z,32.48
2023-05-12T15:56:33.148Z,32.33
2023-05-12T15:59:34.137Z,32.47
2023-05-12T16:02:35.269Z,32.34
2023-05-12T16:05:36.166Z,32.47
2023-05-12T16:08:37.150Z,32.66
2023-05-12T16:11:38.142Z,32.54
2023-05-12T16:14:39.147Z,32.54
2023-05-12T16:17:40.147Z,32.60
2023-05-12T16:20:41.137Z,32.47
2023-05-12T16:23:36.351Z,32.35
2023-05-12T16:26:30.336Z,32.51
2023-05-12T16:29:31.160Z,32.52
2023-05-12T16:32:32.202Z,32.40
2023-05-12T16:35:33.111Z,32.54
2023-05-12T16:39:01.199Z,32.55
2023-05-12T16:42:02.160Z,32.72
2023-05-12T16:45:03.220Z,32.82
2023-05-12T16:48:04.164Z,32.30
2023-05-12T16:51:13.180Z,32.65
2023-05-12T16:54:14.131Z,32.49
2023-05-12T16:57:15.162Z,32.32
2023-05-12T17:00:16.145Z,32.39
2023-05-12T17:03:17.234Z,32.31
2023-05-12T17:06:18.149Z,32.27
2023-05-12T17:09:19.176Z,32.32
2023-05-12T17:12:21.126Z,32.50
2023-05-12T17:15:22.175Z,32.40
2023-05-12T17:18:23.167Z,32.50
2023-05-12T17:21:24.147Z,32.49
2023-05-12T17:24:18.277Z,32.50
2023-05-12T17:27:12.447Z,32.48
2023-05-12T17:30:13.136Z,32.36
2023-05-12T17:33:15.189Z,32.35
2023-05-12T17:36:16.100Z,32.30
2023-05-12T17:39:17.139Z,32.48
2023-05-12T17:42:18.127Z,32.33
2023-05-12T17:45:21.311Z,32.35
2023-05-12T17:48:22.306Z,32.21
2023-05-12T17:51:23.164Z,32.47
2023-05-12T17:54:24.099Z,32.55
2023-05-12T17:57:25.139Z,32.55
2023-05-12T18:00:26.124Z,32.35
2023-05-12T18:03:31.169Z,32.36
2023-05-12T18:06:34.852Z,32.39
2023-05-12T18:09:37.185Z,32.51
2023-05-12T18:12:38.110Z,32.44
2023-05-12T18:15:39.213Z,32.59
2023-05-12T18:18:40.143Z,32.51
2023-05-12T18:21:41.149Z,32.47
2023-05-12T18:24:42.127Z,32.41
2023-05-12T18:27:43.287Z,32.46
2023-05-12T18:30:44.136Z,32.50
2023-05-12T18:33:45.124Z,32.54
2023-05-12T18:36:46.094Z,32.65
2023-05-12T18:39:48.126Z,32.56
2023-05-12T18:42:49.125Z,32.71
2023-05-12T18:45:50.159Z,32.44
2023-05-12T18:48:51.134Z,32.49
2023-05-12T18:51:52.756Z,32.37
2023-05-12T18:54:53.128Z,32.33
2023-05-12T18:57:54.133Z,32.49
2023-05-12T19:00:55.101Z,32.34
2023-05-12T19:03:56.155Z,32.45
2023-05-12T19:06:57.092Z,32.59
2023-05-12T19:09:58.182Z,32.44
2023-05-12T19:12:59.117Z,32.46
2023-05-12T19:16:00.200Z,32.43
2023-05-12T19:19:01.129Z,32.43
2023-05-12T19:22:02.156Z,32.33
2023-05-12T19:25:03.155Z,32.30
2023-05-12T19:28:04.311Z,32.39
2023-05-12T19:31:05.102Z,32.49
2023-05-12T19:34:06.166Z,32.50
2023-05-12T19:37:08.091Z,32.27
2023-05-12T19:40:09.154Z,32.36
2023-05-12T19:43:12.093Z,32.22
2023-05-12T19:46:13.202Z,32.37
2023-05-12T19:49:14.099Z,32.43
2023-05-12T19:52:15.160Z,32.51
2023-05-12T19:55:16.111Z,32.43
2023-05-12T19:58:17.159Z,32.48
2023-05-12T20:01:19.297Z,32.55
2023-05-12T20:04:20.097Z,32.67
2023-05-12T20:07:21.113Z,32.71
2023-05-12T20:10:22.099Z,32.85
2023-05-12T20:13:23.106Z,32.92
2023-05-12T20:16:24.495Z,32.99
2023-05-12T20:19:25.143Z,32.66
2023-05-12T20:22:26.105Z,32.65
2023-05-12T20:25:27.116Z,32.93
2023-05-12T20:28:30.285Z,33.06
2023-05-12T20:31:31.151Z,32.80
2023-05-12T20:34:32.111Z,32.64
2023-05-12T20:37:33.081Z,32.68
2023-05-12T20:40:34.137Z,32.99
2023-05-12T20:43:35.096Z,32.88
2023-05-12T20:46:38.381Z,32.95
2023-05-12T20:49:39.087Z,33.01
2023-05-12T20:52:40.143Z,32.95
2023-05-12T20:55:41.061Z,32.85
2023-05-12T20:58:42.172Z,33.09
2023-05-12T21:01:43.099Z,32.92
2023-05-12T21:04:44.139Z,32.93
2023-05-12T21:07:45.073Z,32.78
2023-05-12T21:10:47.120Z,32.71
2023-05-12T21:13:48.221Z,33.08
2023-05-12T21:16:49.194Z,33.07
2023-05-12T21:19:51.091Z,32.79
2023-05-12T21:22:52.146Z,32.86
2023-05-12T21:25:53.090Z,32.82
2023-05-12T21:28:54.417Z,32.71
2023-05-12T21:31:55.203Z,32.76
2023-05-12T21:34:56.131Z,32.71
2023-05-12T21:37:57.080Z,32.57
2023-05-12T21:40:59.128Z,32.62
2023-05-12T21:44:00.117Z,32.84
2023-05-12T21:47:01.101Z,32.51
2023-05-12T21:50:06.033Z,32.70
2023-05-12T21:53:07.105Z,32.53
2023-05-12T21:56:08.064Z,32.50
2023-05-12T21:59:09.111Z,32.60
2023-05-12T22:02:10.069Z,32.58
2023-05-12T22:05:12.112Z,32.68
2023-05-12T22:08:13.070Z,32.72
2023-05-12T22:11:14.143Z,32.63
2023-05-12T22:14:15.131Z,32.48
2023-05-12T22:17:16.129Z,32.55
2023-05-12T22:20:17.084Z,32.50
2023-05-12T22:23:18.153Z,32.56
2023-05-12T22:26:19.067Z,32.55
2023-05-12T22:29:20.209Z,32.36
2023-05-12T22:32:21.105Z,32.42
2023-05-12T22:35:22.094Z,32.40
2023-05-12T22:38:23.142Z,32.24
2023-05-12T22:41:24.117Z,32.47
2023-05-12T22:44:25.040Z,32.46
2023-05-12T22:47:26.122Z,32.49
2023-05-12T22:50:27.091Z,32.37
2023-05-12T22:53:28.087Z,32.31
2023-05-12T22:56:29.055Z,32.57
2023-05-12T22:59:30.039Z,32.30
2023-05-12T23:02:31.087Z,32.51
2023-05-12T23:05:32.053Z,32.49
2023-05-12T23:08:33.067Z,32.33
2023-05-12T23:11:34.050Z,32.26
2023-05-12T23:14:35.074Z,32.33
2023-05-12T23:17:36.055Z,32.37
2023-05-12T23:20:37.038Z,32.50
2023-05-12T23:23:38.076Z,32.25
2023-05-12T23:26:39.035Z,32.36
2023-05-12T23:29:41.059Z,32.30
2023-05-12T23:32:42.218Z,31.97
2023-05-12T23:35:43.079Z,32.06
2023-05-12T23:38:44.062Z,32.14
2023-05-12T23:41:45.048Z,32.22
2023-05-12T23:44:46.085Z,32.31
2023-05-12T23:47:47.121Z,32.19
2023-05-12T23:50:48.042Z,32.16
2023-05-12T23:53:49.035Z,32.11
2023-05-12T23:56:50.064Z,32.21
2023-05-12T23:59:51.056Z,32.07
